sensor_id;sensor_type;location;lat;lon;timestamp;P1;durP1;ratioP1;P2;durP2;ratioP2
59388;SDS011;51830;45.202;19.720;2022-09-09T00:00:22;14.90;;;3.80;;
59388;SDS011;51830;45.202;19.720;2022-09-09T00:03:31;16.33;;;3.83;;
59388;SDS011;51830;45.202;19.720;2022-09-09T00:05:45;15.65;;;3.80;;
59388;SDS011;51830;45.202;19.720;2022-09-09T00:08:19;13.90;;;3.85;;
59388;SDS011;51830;45.202;19.720;2022-09-09T00:10:46;17.08;;;4.22;;
59388;SDS011;51830;45.202;19.720;2022-09-09T00:13:19;14.15;;;3.88;;
59388;SDS011;51830;45.202;19.720;2022-09-09T00:15:54;14.73;;;3.80;;
59388;SDS011;51830;45.202;19.720;2022-09-09T00:18:24;14.80;;;3.55;;
59388;SDS011;51830;45.202;19.720;2022-09-09T00:20:55;14.43;;;3.63;;
59388;SDS011;51830;45.202;19.720;2022-09-09T00:23:30;13.18;;;3.55;;
59388;SDS011;51830;45.202;19.720;2022-09-09T00:28:43;16.08;;;4.43;;
59388;SDS011;51830;45.202;19.720;2022-09-09T00:31:13;13.35;;;3.88;;
59388;SDS011;51830;45.202;19.720;2022-09-09T00:33:39;15.50;;;4.30;;
59388;SDS011;51830;45.202;19.720;2022-09-09T00:36:09;22.77;;;4.18;;
59388;SDS011;51830;45.202;19.720;2022-09-09T00:38:42;18.40;;;3.60;;
59388;SDS011;51830;45.202;19.720;2022-09-09T00:44:02;13.93;;;3.85;;
59388;SDS011;51830;45.202;19.720;2022-09-09T00:57:13;13.93;;;3.72;;
59388;SDS011;51830;45.202;19.720;2022-09-09T00:59:44;15.13;;;3.80;;
59388;SDS011;51830;45.202;19.720;2022-09-09T01:02:35;13.43;;;3.60;;
59388;SDS011;51830;45.202;19.720;2022-09-09T01:05:01;13.52;;;3.47;;
59388;SDS011;51830;45.202;19.720;2022-09-09T01:07:29;12.98;;;3.53;;
59388;SDS011;51830;45.202;19.720;2022-09-09T01:09:57;14.60;;;4.25;;
59388;SDS011;51830;45.202;19.720;2022-09-09T01:15:12;15.07;;;3.78;;
59388;SDS011;51830;45.202;19.720;2022-09-09T01:17:46;17.45;;;4.10;;
59388;SDS011;51830;45.202;19.720;2022-09-09T01:20:26;15.32;;;4.03;;
59388;SDS011;51830;45.202;19.720;2022-09-09T01:25:25;16.08;;;4.10;;
59388;SDS011;51830;45.202;19.720;2022-09-09T01:27:54;13.23;;;3.65;;
59388;SDS011;51830;45.202;19.720;2022-09-09T01:30:21;13.73;;;3.90;;
59388;SDS011;51830;45.202;19.720;2022-09-09T01:32:54;13.65;;;3.38;;
59388;SDS011;51830;45.202;19.720;2022-09-09T01:38:07;13.88;;;3.90;;
59388;SDS011;51830;45.202;19.720;2022-09-09T01:40:34;14.82;;;3.90;;
59388;SDS011;51830;45.202;19.720;2022-09-09T01:43:00;17.13;;;4.00;;
59388;SDS011;51830;45.202;19.720;2022-09-09T01:45:26;19.08;;;4.20;;
59388;SDS011;51830;45.202;19.720;2022-09-09T01:47:52;16.48;;;4.00;;
59388;SDS011;51830;45.202;19.720;2022-09-09T01:50:19;13.95;;;3.92;;
59388;SDS011;51830;45.202;19.720;2022-09-09T01:52:47;15.27;;;4.18;;
59388;SDS011;51830;45.202;19.720;2022-09-09T01:55:14;17.48;;;4.60;;
59388;SDS011;51830;45.202;19.720;2022-09-09T02:00:08;16.80;;;4.15;;
59388;SDS011;51830;45.202;19.720;2022-09-09T02:02:39;15.18;;;3.95;;
59388;SDS011;51830;45.202;19.720;2022-09-09T02:05:13;16.23;;;4.05;;
59388;SDS011;51830;45.202;19.720;2022-09-09T02:07:46;14.10;;;3.83;;
59388;SDS011;51830;45.202;19.720;2022-09-09T02:10:17;14.45;;;3.90;;
59388;SDS011;51830;45.202;19.720;2022-09-09T02:12:47;14.98;;;4.20;;
59388;SDS011;51830;45.202;19.720;2022-09-09T02:18:09;16.77;;;4.28;;
59388;SDS011;51830;45.202;19.720;2022-09-09T02:20:39;15.13;;;4.15;;
59388;SDS011;51830;45.202;19.720;2022-09-09T02:23:05;14.20;;;4.00;;
59388;SDS011;51830;45.202;19.720;2022-09-09T02:25:33;17.58;;;4.47;;
59388;SDS011;51830;45.202;19.720;2022-09-09T02:28:01;17.40;;;4.45;;
59388;SDS011;51830;45.202;19.720;2022-09-09T02:30:29;16.00;;;4.13;;
59388;SDS011;51830;45.202;19.720;2022-09-09T02:32:56;15.18;;;4.35;;
59388;SDS011;51830;45.202;19.720;2022-09-09T02:35:23;13.60;;;3.78;;
59388;SDS011;51830;45.202;19.720;2022-09-09T02:37:51;15.68;;;3.95;;
59388;SDS011;51830;45.202;19.720;2022-09-09T02:40:19;16.48;;;4.07;;
59388;SDS011;51830;45.202;19.720;2022-09-09T02:42:46;16.73;;;4.28;;
59388;SDS011;51830;45.202;19.720;2022-09-09T02:45:14;14.98;;;4.03;;
59388;SDS011;51830;45.202;19.720;2022-09-09T02:47:47;15.32;;;4.60;;
59388;SDS011;51830;45.202;19.720;2022-09-09T02:57:57;14.00;;;3.80;;
59388;SDS011;51830;45.202;19.720;2022-09-09T03:00:25;17.10;;;4.28;;
59388;SDS011;51830;45.202;19.720;2022-09-09T03:02:52;15.18;;;3.92;;
59388;SDS011;51830;45.202;19.720;2022-09-09T03:05:21;17.52;;;5.05;;
59388;SDS011;51830;45.202;19.720;2022-09-09T03:07:48;14.00;;;3.80;;
59388;SDS011;51830;45.202;19.720;2022-09-09T03:10:15;12.82;;;3.65;;
59388;SDS011;51830;45.202;19.720;2022-09-09T03:12:42;14.23;;;3.95;;
59388;SDS011;51830;45.202;19.720;2022-09-09T03:15:09;16.15;;;3.88;;
59388;SDS011;51830;45.202;19.720;2022-09-09T03:17:35;16.27;;;3.85;;
59388;SDS011;51830;45.202;19.720;2022-09-09T03:20:03;16.38;;;4.10;;
59388;SDS011;51830;45.202;19.720;2022-09-09T03:22:29;12.77;;;3.50;;
59388;SDS011;51830;45.202;19.720;2022-09-09T03:24:55;11.25;;;3.20;;
59388;SDS011;51830;45.202;19.720;2022-09-09T03:27:22;13.75;;;3.78;;
59388;SDS011;51830;45.202;19.720;2022-09-09T03:29:48;14.05;;;3.88;;
59388;SDS011;51830;45.202;19.720;2022-09-09T03:32:18;16.02;;;4.05;;
59388;SDS011;51830;45.202;19.720;2022-09-09T03:34:47;15.77;;;3.45;;
59388;SDS011;51830;45.202;19.720;2022-09-09T03:37:14;12.63;;;3.80;;
59388;SDS011;51830;45.202;19.720;2022-09-09T03:39:41;12.73;;;3.55;;
59388;SDS011;51830;45.202;19.720;2022-09-09T03:42:07;13.88;;;3.72;;
59388;SDS011;51830;45.202;19.720;2022-09-09T03:44:33;14.25;;;3.70;;
59388;SDS011;51830;45.202;19.720;2022-09-09T03:46:59;16.08;;;4.18;;
59388;SDS011;51830;45.202;19.720;2022-09-09T03:49:26;14.73;;;4.65;;
59388;SDS011;51830;45.202;19.720;2022-09-09T03:51:54;15.90;;;4.30;;
59388;SDS011;51830;45.202;19.720;2022-09-09T03:54:22;16.88;;;3.83;;
59388;SDS011;51830;45.202;19.720;2022-09-09T03:56:48;18.30;;;4.82;;
59388;SDS011;51830;45.202;19.720;2022-09-09T03:59:14;17.60;;;4.63;;
59388;SDS011;51830;45.202;19.720;2022-09-09T04:01:41;15.93;;;4.22;;
59388;SDS011;51830;45.202;19.720;2022-09-09T04:04:07;14.43;;;4.22;;
59388;SDS011;51830;45.202;19.720;2022-09-09T04:06:34;16.98;;;4.45;;
59388;SDS011;51830;45.202;19.720;2022-09-09T04:09:00;18.67;;;4.80;;
59388;SDS011;51830;45.202;19.720;2022-09-09T04:11:27;14.10;;;4.43;;
59388;SDS011;51830;45.202;19.720;2022-09-09T04:13:53;19.60;;;5.22;;
59388;SDS011;51830;45.202;19.720;2022-09-09T04:16:20;14.60;;;4.95;;
59388;SDS011;51830;45.202;19.720;2022-09-09T04:18:46;19.75;;;5.07;;
59388;SDS011;51830;45.202;19.720;2022-09-09T04:21:13;18.33;;;4.78;;
59388;SDS011;51830;45.202;19.720;2022-09-09T04:23:41;14.70;;;4.70;;
59388;SDS011;51830;45.202;19.720;2022-09-09T04:26:07;17.48;;;4.70;;
59388;SDS011;51830;45.202;19.720;2022-09-09T04:28:34;14.63;;;4.70;;
59388;SDS011;51830;45.202;19.720;2022-09-09T04:31:07;16.73;;;4.75;;
59388;SDS011;51830;45.202;19.720;2022-09-09T04:33:34;16.73;;;5.07;;
59388;SDS011;51830;45.202;19.720;2022-09-09T04:36:00;16.95;;;5.22;;
59388;SDS011;51830;45.202;19.720;2022-09-09T04:38:26;14.93;;;4.95;;
59388;SDS011;51830;45.202;19.720;2022-09-09T04:40:52;15.57;;;4.75;;
59388;SDS011;51830;45.202;19.720;2022-09-09T04:43:19;21.52;;;5.20;;
59388;SDS011;51830;45.202;19.720;2022-09-09T04:45:49;15.20;;;4.80;;
59388;SDS011;51830;45.202;19.720;2022-09-09T04:48:16;15.60;;;5.13;;
59388;SDS011;51830;45.202;19.720;2022-09-09T04:50:42;15.35;;;4.82;;
59388;SDS011;51830;45.202;19.720;2022-09-09T04:53:08;15.68;;;5.13;;
59388;SDS011;51830;45.202;19.720;2022-09-09T04:55:35;15.63;;;5.03;;
59388;SDS011;51830;45.202;19.720;2022-09-09T04:58:07;17.67;;;5.25;;
59388;SDS011;51830;45.202;19.720;2022-09-09T05:00:34;15.80;;;5.25;;
59388;SDS011;51830;45.202;19.720;2022-09-09T05:03:04;15.25;;;4.70;;
59388;SDS011;51830;45.202;19.720;2022-09-09T05:05:31;15.35;;;4.60;;
59388;SDS011;51830;45.202;19.720;2022-09-09T05:08:02;16.55;;;4.40;;
59388;SDS011;51830;45.202;19.720;2022-09-09T05:10:29;15.10;;;4.80;;
59388;SDS011;51830;45.202;19.720;2022-09-09T05:12:55;16.55;;;5.18;;
59388;SDS011;51830;45.202;19.720;2022-09-09T05:15:21;14.57;;;4.10;;
59388;SDS011;51830;45.202;19.720;2022-09-09T05:17:48;14.80;;;4.43;;
59388;SDS011;51830;45.202;19.720;2022-09-09T05:20:14;22.70;;;4.50;;
59388;SDS011;51830;45.202;19.720;2022-09-09T05:22:40;14.40;;;4.32;;
59388;SDS011;51830;45.202;19.720;2022-09-09T05:25:06;14.52;;;4.32;;
59388;SDS011;51830;45.202;19.720;2022-09-09T05:27:36;14.80;;;4.60;;
59388;SDS011;51830;45.202;19.720;2022-09-09T05:30:03;16.52;;;4.95;;
59388;SDS011;51830;45.202;19.720;2022-09-09T05:32:30;15.50;;;4.82;;
59388;SDS011;51830;45.202;19.720;2022-09-09T05:34:59;17.48;;;5.07;;
59388;SDS011;51830;45.202;19.720;2022-09-09T05:37:26;14.38;;;4.72;;
59388;SDS011;51830;45.202;19.720;2022-09-09T05:39:52;17.83;;;5.03;;
59388;SDS011;51830;45.202;19.720;2022-09-09T05:42:18;14.88;;;4.57;;
59388;SDS011;51830;45.202;19.720;2022-09-09T05:44:45;16.20;;;5.07;;
59388;SDS011;51830;45.202;19.720;2022-09-09T05:47:11;17.77;;;4.60;;
59388;SDS011;51830;45.202;19.720;2022-09-09T05:49:37;15.30;;;4.45;;
59388;SDS011;51830;45.202;19.720;2022-09-09T05:52:03;15.63;;;4.60;;
59388;SDS011;51830;45.202;19.720;2022-09-09T05:54:29;16.17;;;4.43;;
59388;SDS011;51830;45.202;19.720;2022-09-09T05:56:55;16.73;;;4.88;;
59388;SDS011;51830;45.202;19.720;2022-09-09T05:59:22;19.75;;;4.70;;
59388;SDS011;51830;45.202;19.720;2022-09-09T06:01:48;16.92;;;4.80;;
59388;SDS011;51830;45.202;19.720;2022-09-09T06:04:14;16.83;;;5.00;;
59388;SDS011;51830;45.202;19.720;2022-09-09T06:06:41;17.33;;;4.35;;
59388;SDS011;51830;45.202;19.720;2022-09-09T06:09:08;14.98;;;4.35;;
59388;SDS011;51830;45.202;19.720;2022-09-09T06:11:36;15.82;;;4.47;;
59388;SDS011;51830;45.202;19.720;2022-09-09T06:14:03;18.27;;;4.57;;
59388;SDS011;51830;45.202;19.720;2022-09-09T06:16:29;23.63;;;5.03;;
59388;SDS011;51830;45.202;19.720;2022-09-09T06:18:57;15.15;;;4.70;;
59388;SDS011;51830;45.202;19.720;2022-09-09T06:21:24;18.75;;;5.40;;
59388;SDS011;51830;45.202;19.720;2022-09-09T06:23:51;16.25;;;5.03;;
59388;SDS011;51830;45.202;19.720;2022-09-09T06:26:19;16.10;;;6.30;;
59388;SDS011;51830;45.202;19.720;2022-09-09T06:28:45;15.32;;;4.90;;
59388;SDS011;51830;45.202;19.720;2022-09-09T06:31:13;16.42;;;5.43;;
59388;SDS011;51830;45.202;19.720;2022-09-09T06:33:40;15.20;;;4.80;;
59388;SDS011;51830;45.202;19.720;2022-09-09T06:36:11;17.40;;;5.35;;
59388;SDS011;51830;45.202;19.720;2022-09-09T06:38:37;17.83;;;5.65;;
59388;SDS011;51830;45.202;19.720;2022-09-09T06:41:03;21.35;;;5.10;;
59388;SDS011;51830;45.202;19.720;2022-09-09T06:43:30;22.45;;;5.80;;
59388;SDS011;51830;45.202;19.720;2022-09-09T06:46:00;19.80;;;4.95;;
59388;SDS011;51830;45.202;19.720;2022-09-09T06:48:27;19.67;;;5.50;;
59388;SDS011;51830;45.202;19.720;2022-09-09T06:51:04;16.10;;;5.35;;
59388;SDS011;51830;45.202;19.720;2022-09-09T06:53:34;17.05;;;5.55;;
59388;SDS011;51830;45.202;19.720;2022-09-09T06:56:02;19.52;;;5.47;;
59388;SDS011;51830;45.202;19.720;2022-09-09T06:58:28;17.00;;;5.32;;
59388;SDS011;51830;45.202;19.720;2022-09-09T07:01:04;15.25;;;5.10;;
59388;SDS011;51830;45.202;19.720;2022-09-09T07:03:30;20.42;;;5.70;;
59388;SDS011;51830;45.202;19.720;2022-09-09T07:05:56;16.67;;;5.00;;
59388;SDS011;51830;45.202;19.720;2022-09-09T07:08:23;19.38;;;6.45;;
59388;SDS011;51830;45.202;19.720;2022-09-09T07:10:50;15.95;;;5.32;;
59388;SDS011;51830;45.202;19.720;2022-09-09T07:13:27;17.27;;;5.55;;
59388;SDS011;51830;45.202;19.720;2022-09-09T07:15:54;16.25;;;5.32;;
59388;SDS011;51830;45.202;19.720;2022-09-09T07:18:20;17.83;;;5.50;;
59388;SDS011;51830;45.202;19.720;2022-09-09T07:20:52;16.58;;;5.38;;
59388;SDS011;51830;45.202;19.720;2022-09-09T07:23:19;19.92;;;5.60;;
59388;SDS011;51830;45.202;19.720;2022-09-09T07:25:45;16.65;;;5.47;;
59388;SDS011;51830;45.202;19.720;2022-09-09T07:28:12;22.52;;;5.35;;
59388;SDS011;51830;45.202;19.720;2022-09-09T07:30:39;16.38;;;4.93;;
59388;SDS011;51830;45.202;19.720;2022-09-09T07:33:06;17.38;;;5.05;;
59388;SDS011;51830;45.202;19.720;2022-09-09T07:35:32;17.20;;;4.78;;
59388;SDS011;51830;45.202;19.720;2022-09-09T07:38:00;15.15;;;4.50;;
59388;SDS011;51830;45.202;19.720;2022-09-09T07:40:26;15.07;;;4.53;;
59388;SDS011;51830;45.202;19.720;2022-09-09T07:42:54;14.90;;;4.63;;
59388;SDS011;51830;45.202;19.720;2022-09-09T07:45:21;15.80;;;5.18;;
59388;SDS011;51830;45.202;19.720;2022-09-09T07:47:47;16.48;;;4.43;;
59388;SDS011;51830;45.202;19.720;2022-09-09T07:50:13;15.88;;;4.40;;
59388;SDS011;51830;45.202;19.720;2022-09-09T07:52:40;15.55;;;5.05;;
59388;SDS011;51830;45.202;19.720;2022-09-09T07:55:06;21.35;;;4.80;;
59388;SDS011;51830;45.202;19.720;2022-09-09T07:57:33;14.45;;;4.43;;
59388;SDS011;51830;45.202;19.720;2022-09-09T07:59:59;14.95;;;5.07;;
59388;SDS011;51830;45.202;19.720;2022-09-09T08:02:25;14.77;;;4.65;;
59388;SDS011;51830;45.202;19.720;2022-09-09T08:04:55;18.83;;;5.82;;
59388;SDS011;51830;45.202;19.720;2022-09-09T08:07:21;14.70;;;4.63;;
59388;SDS011;51830;45.202;19.720;2022-09-09T08:09:48;17.25;;;5.60;;
59388;SDS011;51830;45.202;19.720;2022-09-09T08:12:14;17.42;;;6.10;;
59388;SDS011;51830;45.202;19.720;2022-09-09T08:14:41;17.60;;;5.80;;
59388;SDS011;51830;45.202;19.720;2022-09-09T08:17:07;19.80;;;7.05;;
59388;SDS011;51830;45.202;19.720;2022-09-09T08:19:34;18.15;;;6.50;;
59388;SDS011;51830;45.202;19.720;2022-09-09T08:22:01;19.27;;;7.70;;
59388;SDS011;51830;45.202;19.720;2022-09-09T08:24:27;23.13;;;9.45;;
59388;SDS011;51830;45.202;19.720;2022-09-09T08:26:54;20.35;;;8.00;;
59388;SDS011;51830;45.202;19.720;2022-09-09T08:29:22;21.98;;;8.50;;
59388;SDS011;51830;45.202;19.720;2022-09-09T08:34:14;23.92;;;9.20;;
59388;SDS011;51830;45.202;19.720;2022-09-09T08:36:41;27.10;;;10.13;;
59388;SDS011;51830;45.202;19.720;2022-09-09T08:39:08;27.23;;;10.55;;
59388;SDS011;51830;45.202;19.720;2022-09-09T08:41:38;21.77;;;9.70;;
59388;SDS011;51830;45.202;19.720;2022-09-09T08:46:38;23.90;;;9.18;;
59388;SDS011;51830;45.202;19.720;2022-09-09T08:51:43;22.23;;;7.55;;
59388;SDS011;51830;45.202;19.720;2022-09-09T08:54:09;20.75;;;7.60;;
59388;SDS011;51830;45.202;19.720;2022-09-09T08:56:35;23.38;;;7.57;;
59388;SDS011;51830;45.202;19.720;2022-09-09T08:59:02;20.17;;;7.40;;
59388;SDS011;51830;45.202;19.720;2022-09-09T09:06:35;15.57;;;4.53;;
59388;SDS011;51830;45.202;19.720;2022-09-09T09:11:36;13.90;;;3.90;;
59388;SDS011;51830;45.202;19.720;2022-09-09T09:14:07;15.27;;;4.65;;
59388;SDS011;51830;45.202;19.720;2022-09-09T09:19:01;18.70;;;6.47;;
59388;SDS011;51830;45.202;19.720;2022-09-09T09:24:00;20.20;;;7.13;;
59388;SDS011;51830;45.202;19.720;2022-09-09T09:26:30;23.25;;;7.60;;
59388;SDS011;51830;45.202;19.720;2022-09-09T09:28:57;24.30;;;8.18;;
59388;SDS011;51830;45.202;19.720;2022-09-09T09:31:24;21.75;;;8.15;;
59388;SDS011;51830;45.202;19.720;2022-09-09T09:33:55;22.92;;;8.20;;
59388;SDS011;51830;45.202;19.720;2022-09-09T09:36:24;25.73;;;7.32;;
59388;SDS011;51830;45.202;19.720;2022-09-09T09:38:58;21.60;;;6.43;;
